Thailine 5 — 9WFF5 — position and weather

sailwx.info

Track history (hours):
 
Tides and Currents Weather Stations Pressure Air Temp Water Temp Dewpoint Dewpoint Depression Visibility Wind Speed Wind Dir Waves Ship Positions

Thailine 5

Last reported at 2018-Apr-18 09:59 UTC. Time now 2018-Apr-21 04:05 UTC.
Position N 33°15' E 132°01'.

; draft 5 m.

Type: Cargo ship. MMSI: 533399000.

Date/timePositionNaut miles runAvg speedWind from/ knotsBaromVisibWave heightAir tempDewpointWater temp
2018-Apr-18 09:59N 33°15' E 132°01'8 9.7
2018-Apr-18 09:11N 33°21' E 131°57'2 9.6
2018-Apr-18 09:00N 33°23' E 131°56'510.3
2018-Apr-18 08:30N 33°27' E 131°53'611.1
2018-Apr-18 08:00N 33°32' E 131°50'611.6
2018-Apr-18 07:31N 33°37' E 131°47'612.0
2018-Apr-18 06:59N 33°43' E 131°44'511.2
2018-Apr-18 06:30N 33°46' E 131°39'612.2
2018-Apr-18 06:01N 33°48' E 131°31'612.2
2018-Apr-18 05:30N 33°49' E 131°24'612.0
2018-Apr-18 05:00N 33°50' E 131°17'611.7
2018-Apr-18 04:30N 33°52' E 131°10'611.0
2018-Apr-18 04:01N 33°54' E 131°04'4 8.2
2018-Apr-18 03:31N 33°52' E 130°59'0 0.8
2018-Apr-18 02:58N 33°53' E 130°60'0 0.0
2018-Apr-18 02:28N 33°53' E 130°60'0 0.0
2018-Apr-18 01:58N 33°53' E 130°60'0 0.0
2018-Apr-18 01:28N 33°53' E 130°60'0 0.0
2018-Apr-18 00:58N 33°53' E 130°60'0 0.0
2018-Apr-18 00:28N 33°53' E 130°60'0 0.0
2018-Apr-17 23:58N 33°53' E 130°60'0 0.0
2018-Apr-17 23:28N 33°53' E 130°60'0 0.0
2018-Apr-17 22:58N 33°53' E 130°60'0 0.0
2018-Apr-17 22:28N 33°53' E 130°60'0 0.0
2018-Apr-17 21:58N 33°53' E 130°60'0 0.0
2018-Apr-17 21:28N 33°53' E 130°60'0 0.0
2018-Apr-17 20:58N 33°53' E 130°60'0 0.0
2018-Apr-17 20:28N 33°53' E 130°60'0 0.0
2018-Apr-17 19:58N 33°53' E 130°60'0 0.0
2018-Apr-17 19:28N 33°53' E 130°60'0 0.0
2018-Apr-17 18:58N 33°53' E 130°60'0 0.0
2018-Apr-17 18:25N 33°53' E 130°60'0 0.0
2018-Apr-17 17:58N 33°53' E 130°60'0 0.0
2018-Apr-17 17:28N 33°53' E 130°60'0 0.0
2018-Apr-17 16:55N 33°53' E 130°60'0 0.0
2018-Apr-17 16:28N 33°53' E 130°60'0 0.0
2018-Apr-17 15:58N 33°53' E 130°60'0 0.0
2018-Apr-17 15:28N 33°53' E 130°60'0 0.0
2018-Apr-17 14:58N 33°53' E 130°60'0 0.0
2018-Apr-17 14:28N 33°53' E 130°60'0 0.0
2018-Apr-17 13:58N 33°53' E 130°60'0 0.0
2018-Apr-17 13:28N 33°53' E 130°60'0 0.0
2018-Apr-17 12:58N 33°53' E 130°60'0 0.0
2018-Apr-17 12:28N 33°53' E 130°60'0 0.0
2018-Apr-17 11:58N 33°53' E 130°60'0 0.0
2018-Apr-17 11:28N 33°53' E 130°60'0 0.0
2018-Apr-17 10:58N 33°53' E 130°60'0 0.0
2018-Apr-17 10:28N 33°53' E 130°60'0 0.0
2018-Apr-17 09:58N 33°53' E 130°60'0 0.0
2018-Apr-17 09:28N 33°53' E 130°60'0 0.0
2018-Apr-17 08:58N 33°53' E 130°60'0 0.0
2018-Apr-17 08:28N 33°53' E 130°60'0 0.0
2018-Apr-17 07:58N 33°53' E 130°60'0 0.0
2018-Apr-17 07:28N 33°53' E 130°60'0 0.0
2018-Apr-17 06:58N 33°53' E 130°60'0 0.0
2018-Apr-17 06:30N 33°53' E 130°60'0 0.8
2018-Apr-17 06:00N 33°52' E 130°60'2 4.0
2018-Apr-17 05:30N 33°53' E 131°02'3 5.6
2018-Apr-17 05:00N 33°53' E 131°05'3 6.7
2018-Apr-17 04:30N 33°52' E 131°09'3 6.8
2018-Apr-17 04:00N 33°52' E 131°13'3 6.8
2018-Apr-17 03:30N 33°51' E 131°17'510.0
2018-Apr-17 03:00N 33°50' E 131°23'510.2
2018-Apr-17 02:30N 33°49' E 131°29'510.1
2018-Apr-17 02:00N 33°48' E 131°35'510.4
2018-Apr-17 01:30N 33°47' E 131°41'510.6
2018-Apr-17 01:00N 33°46' E 131°47'611.0
2018-Apr-17 00:30N 33°45' E 131°54'510.9
2018-Apr-17 00:00N 33°43' E 132°00'610.7
2018-Apr-16 23:28N 33°42' E 132°07'510.2
2018-Apr-16 23:00N 33°43' E 132°12'510.3
2018-Apr-16 22:30N 33°45' E 132°18'510.2
2018-Apr-16 22:00N 33°46' E 132°24'1 2.3
2018-Apr-16 21:29N 33°45' E 132°24'5 9.9
2018-Apr-16 21:00N 33°44' E 132°18'5 9.6
2018-Apr-16 20:28N 33°42' E 132°12'1 1.8
2018-Apr-16 19:51N 33°43' E 132°13'411.6
2018-Apr-16 19:30N 33°45' E 132°17'611.3
2018-Apr-16 19:00N 33°46' E 132°24'611.9
2018-Apr-16 18:30N 33°49' E 132°30'612.0
2018-Apr-16 18:00N 33°53' E 132°36'613.0
2018-Apr-16 17:30N 33°57' E 132°42'912.5
2018-Apr-16 16:46N 34°04' E 132°49'6910.8
2018-Apr-16 10:21N 34°26' E 134°08'513.1
2018-Apr-16 09:59N 34°25' E 134°14'612.1
2018-Apr-16 09:29N 34°25' E 134°21'511.5
2018-Apr-16 09:00N 34°27' E 134°27'611.3
2018-Apr-16 08:30N 34°29' E 134°33'611.1
2018-Apr-16 08:01N 34°31' E 134°40'510.7
2018-Apr-16 07:30N 34°33' E 134°46'5 9.9
2018-Apr-16 07:01N 34°35' E 134°51'5 9.2
2018-Apr-16 06:30N 34°37' E 134°56'4 7.8
2018-Apr-16 06:01N 34°38' E 135°01'3 6.4
2018-Apr-16 05:31N 34°36' E 135°04'4 8.7
2018-Apr-16 05:00N 34°36' E 135°09'510.4
2018-Apr-16 04:30N 34°36' E 135°16'5 9.2
2018-Apr-16 04:00N 34°40' E 135°18'2 3.6
2018-Apr-16 03:29N 34°42' E 135°17'0 0.0
2018-Apr-16 02:59N 34°42' E 135°17'0 0.0
2018-Apr-16 02:29N 34°42' E 135°17'0 0.0
2018-Apr-16 01:59N 34°42' E 135°17'0 0.0
2018-Apr-16 01:29N 34°42' E 135°17'0 0.0
2018-Apr-16 00:59N 34°42' E 135°17'0 0.0
2018-Apr-16 00:29N 34°42' E 135°17'0 0.0
2018-Apr-15 23:59N 34°42' E 135°17'0 0.0
2018-Apr-15 23:29N 34°42' E 135°17'0 0.0
2018-Apr-15 22:59N 34°42' E 135°17'0 0.6
2018-Apr-15 22:31N 34°42' E 135°17'2 4.2
2018-Apr-15 22:01N 34°40' E 135°18'1 2.3
2018-Apr-15 21:25N 34°39' E 135°18'0 0.0
2018-Apr-15 20:58N 34°39' E 135°18'0 0.0
2018-Apr-15 20:28N 34°39' E 135°18'0 0.1
2018-Apr-15 19:58N 34°39' E 135°18'0 0.0
2018-Apr-15 19:28N 34°39' E 135°18'0 0.0
2018-Apr-15 18:58N 34°39' E 135°18'0 0.0
2018-Apr-15 18:28N 34°39' E 135°18'0 0.0
2018-Apr-15 17:58N 34°39' E 135°18'0 0.1
2018-Apr-15 17:28N 34°39' E 135°18'0 0.0
2018-Apr-15 16:58N 34°39' E 135°18'0 0.0
2018-Apr-15 16:28N 34°39' E 135°18'0 0.0
2018-Apr-15 15:58N 34°39' E 135°18'0 0.1
2018-Apr-15 15:28N 34°39' E 135°18'0 0.1
2018-Apr-15 14:58N 34°39' E 135°18'0 0.0
2018-Apr-15 14:28N 34°39' E 135°18'0 0.0
2018-Apr-15 13:58N 34°39' E 135°18'0 0.0
2018-Apr-15 13:28N 34°39' E 135°18'0 0.1
2018-Apr-15 12:58N 34°39' E 135°18'0 0.1
2018-Apr-15 12:28N 34°39' E 135°18'0 0.0
2018-Apr-15 11:58N 34°39' E 135°18'0 0.0
2018-Apr-15 11:25N 34°39' E 135°18'0 0.1
2018-Apr-15 10:58N 34°39' E 135°18'0 0.0
2018-Apr-15 10:28N 34°39' E 135°18'0 0.0
2018-Apr-15 09:58N 34°39' E 135°18'0 0.0
2018-Apr-15 09:28N 34°39' E 135°18'0 0.0
2018-Apr-15 08:58N 34°39' E 135°18'0 0.0
2018-Apr-15 08:28N 34°39' E 135°18'0 0.3
2018-Apr-15 07:58N 34°39' E 135°18'0 0.0
2018-Apr-15 07:28N 34°39' E 135°18'0 0.7
2018-Apr-15 07:00N 34°39' E 135°18'2 4.2
2018-Apr-15 06:31N 34°37' E 135°16'3 6.0
2018-Apr-15 06:00N 34°35' E 135°13'3 6.1
2018-Apr-15 05:30N 34°35' E 135°09'4 7.4
2018-Apr-15 05:01N 34°35' E 135°05'713.8
2018-Apr-15 04:30N 34°36' E 134°57'714.4
2018-Apr-15 04:00N 34°33' E 134°49'612.5
2018-Apr-15 03:30N 34°31' E 134°42'612.1
2018-Apr-15 03:01N 34°28' E 134°35'611.8
2018-Apr-15 02:31N 34°26' E 134°28'611.8
2018-Apr-15 02:00N 34°24' E 134°22'612.0
2018-Apr-15 01:30N 34°24' E 134°14'75 9.8
2018-Apr-14 17:54N 34°02' E 132°48'4 9.7
2018-Apr-14 17:30N 33°59' E 132°45'4 8.8
2018-Apr-14 17:00N 33°56' E 132°41'4 8.4
2018-Apr-14 16:30N 33°53' E 132°38'5 9.6
2018-Apr-14 16:00N 33°50' E 132°33'3 6.1
2018-Apr-14 15:30N 33°48' E 132°30'810.2
2018-Apr-14 14:45N 33°43' E 132°24'2311.2
2018-Apr-14 12:42N 33°27' E 132°04'511.2
2018-Apr-14 12:14N 33°23' E 131°60'210.6
2018-Apr-14 12:00N 33°21' E 131°59'611.2
2018-Apr-14 11:28N 33°15' E 132°01'  
Track history (hours):
 
Tides and Currents Weather Stations Pressure Air Temp Water Temp Dewpoint Dewpoint Depression Visibility Wind Speed Wind Dir Waves Ship Positions

Thailine 5

Last reported at 2018-Apr-18 09:59 UTC. Time now 2018-Apr-21 04:05 UTC.
Position N 33°15' E 132°01'.

; draft 5 m.

Type: Cargo ship. MMSI: 533399000.

Date/timePositionNaut miles runAvg speedWind from/ knotsBaromVisibWave heightAir tempDewpointWater temp
2018-Apr-18 09:59N 33°15' E 132°01'8 9.7
2018-Apr-18 09:11N 33°21' E 131°57'2 9.6
2018-Apr-18 09:00N 33°23' E 131°56'510.3
2018-Apr-18 08:30N 33°27' E 131°53'611.1
2018-Apr-18 08:00N 33°32' E 131°50'611.6
2018-Apr-18 07:31N 33°37' E 131°47'612.0
2018-Apr-18 06:59N 33°43' E 131°44'511.2
2018-Apr-18 06:30N 33°46' E 131°39'612.2
2018-Apr-18 06:01N 33°48' E 131°31'612.2
2018-Apr-18 05:30N 33°49' E 131°24'612.0
2018-Apr-18 05:00N 33°50' E 131°17'611.7
2018-Apr-18 04:30N 33°52' E 131°10'611.0
2018-Apr-18 04:01N 33°54' E 131°04'4 8.2
2018-Apr-18 03:31N 33°52' E 130°59'0 0.8
2018-Apr-18 02:58N 33°53' E 130°60'0 0.0
2018-Apr-18 02:28N 33°53' E 130°60'0 0.0
2018-Apr-18 01:58N 33°53' E 130°60'0 0.0
2018-Apr-18 01:28N 33°53' E 130°60'0 0.0
2018-Apr-18 00:58N 33°53' E 130°60'0 0.0
2018-Apr-18 00:28N 33°53' E 130°60'0 0.0
2018-Apr-17 23:58N 33°53' E 130°60'0 0.0
2018-Apr-17 23:28N 33°53' E 130°60'0 0.0
2018-Apr-17 22:58N 33°53' E 130°60'0 0.0
2018-Apr-17 22:28N 33°53' E 130°60'0 0.0
2018-Apr-17 21:58N 33°53' E 130°60'0 0.0
2018-Apr-17 21:28N 33°53' E 130°60'0 0.0
2018-Apr-17 20:58N 33°53' E 130°60'0 0.0
2018-Apr-17 20:28N 33°53' E 130°60'0 0.0
2018-Apr-17 19:58N 33°53' E 130°60'0 0.0
2018-Apr-17 19:28N 33°53' E 130°60'0 0.0
2018-Apr-17 18:58N 33°53' E 130°60'0 0.0
2018-Apr-17 18:25N 33°53' E 130°60'0 0.0
2018-Apr-17 17:58N 33°53' E 130°60'0 0.0
2018-Apr-17 17:28N 33°53' E 130°60'0 0.0
2018-Apr-17 16:55N 33°53' E 130°60'0 0.0
2018-Apr-17 16:28N 33°53' E 130°60'0 0.0
2018-Apr-17 15:58N 33°53' E 130°60'0 0.0
2018-Apr-17 15:28N 33°53' E 130°60'0 0.0
2018-Apr-17 14:58N 33°53' E 130°60'0 0.0
2018-Apr-17 14:28N 33°53' E 130°60'0 0.0
2018-Apr-17 13:58N 33°53' E 130°60'0 0.0
2018-Apr-17 13:28N 33°53' E 130°60'0 0.0
2018-Apr-17 12:58N 33°53' E 130°60'0 0.0
2018-Apr-17 12:28N 33°53' E 130°60'0 0.0
2018-Apr-17 11:58N 33°53' E 130°60'0 0.0
2018-Apr-17 11:28N 33°53' E 130°60'0 0.0
2018-Apr-17 10:58N 33°53' E 130°60'0 0.0
2018-Apr-17 10:28N 33°53' E 130°60'0 0.0
2018-Apr-17 09:58N 33°53' E 130°60'0 0.0
2018-Apr-17 09:28N 33°53' E 130°60'0 0.0
2018-Apr-17 08:58N 33°53' E 130°60'0 0.0
2018-Apr-17 08:28N 33°53' E 130°60'0 0.0
2018-Apr-17 07:58N 33°53' E 130°60'0 0.0
2018-Apr-17 07:28N 33°53' E 130°60'0 0.0
2018-Apr-17 06:58N 33°53' E 130°60'0 0.0
2018-Apr-17 06:30N 33°53' E 130°60'0 0.8
2018-Apr-17 06:00N 33°52' E 130°60'2 4.0
2018-Apr-17 05:30N 33°53' E 131°02'3 5.6
2018-Apr-17 05:00N 33°53' E 131°05'3 6.7
2018-Apr-17 04:30N 33°52' E 131°09'3 6.8
2018-Apr-17 04:00N 33°52' E 131°13'3 6.8
2018-Apr-17 03:30N 33°51' E 131°17'510.0
2018-Apr-17 03:00N 33°50' E 131°23'510.2
2018-Apr-17 02:30N 33°49' E 131°29'510.1
2018-Apr-17 02:00N 33°48' E 131°35'510.4
2018-Apr-17 01:30N 33°47' E 131°41'510.6
2018-Apr-17 01:00N 33°46' E 131°47'611.0
2018-Apr-17 00:30N 33°45' E 131°54'510.9
2018-Apr-17 00:00N 33°43' E 132°00'610.7
2018-Apr-16 23:28N 33°42' E 132°07'510.2
2018-Apr-16 23:00N 33°43' E 132°12'510.3
2018-Apr-16 22:30N 33°45' E 132°18'510.2
2018-Apr-16 22:00N 33°46' E 132°24'1 2.3
2018-Apr-16 21:29N 33°45' E 132°24'5 9.9
2018-Apr-16 21:00N 33°44' E 132°18'5 9.6
2018-Apr-16 20:28N 33°42' E 132°12'1 1.8
2018-Apr-16 19:51N 33°43' E 132°13'411.6
2018-Apr-16 19:30N 33°45' E 132°17'611.3
2018-Apr-16 19:00N 33°46' E 132°24'611.9
2018-Apr-16 18:30N 33°49' E 132°30'612.0
2018-Apr-16 18:00N 33°53' E 132°36'613.0
2018-Apr-16 17:30N 33°57' E 132°42'912.5
2018-Apr-16 16:46N 34°04' E 132°49'6910.8
2018-Apr-16 10:21N 34°26' E 134°08'513.1
2018-Apr-16 09:59N 34°25' E 134°14'612.1
2018-Apr-16 09:29N 34°25' E 134°21'511.5
2018-Apr-16 09:00N 34°27' E 134°27'611.3
2018-Apr-16 08:30N 34°29' E 134°33'611.1
2018-Apr-16 08:01N 34°31' E 134°40'510.7
2018-Apr-16 07:30N 34°33' E 134°46'5 9.9
2018-Apr-16 07:01N 34°35' E 134°51'5 9.2
2018-Apr-16 06:30N 34°37' E 134°56'4 7.8
2018-Apr-16 06:01N 34°38' E 135°01'3 6.4
2018-Apr-16 05:31N 34°36' E 135°04'4 8.7
2018-Apr-16 05:00N 34°36' E 135°09'510.4
2018-Apr-16 04:30N 34°36' E 135°16'5 9.2
2018-Apr-16 04:00N 34°40' E 135°18'2 3.6
2018-Apr-16 03:29N 34°42' E 135°17'0 0.0
2018-Apr-16 02:59N 34°42' E 135°17'0 0.0
2018-Apr-16 02:29N 34°42' E 135°17'0 0.0
2018-Apr-16 01:59N 34°42' E 135°17'0 0.0
2018-Apr-16 01:29N 34°42' E 135°17'0 0.0
2018-Apr-16 00:59N 34°42' E 135°17'0 0.0
2018-Apr-16 00:29N 34°42' E 135°17'0 0.0
2018-Apr-15 23:59N 34°42' E 135°17'0 0.0
2018-Apr-15 23:29N 34°42' E 135°17'0 0.0
2018-Apr-15 22:59N 34°42' E 135°17'0 0.6
2018-Apr-15 22:31N 34°42' E 135°17'2 4.2
2018-Apr-15 22:01N 34°40' E 135°18'1 2.3
2018-Apr-15 21:25N 34°39' E 135°18'0 0.0
2018-Apr-15 20:58N 34°39' E 135°18'0 0.0
2018-Apr-15 20:28N 34°39' E 135°18'0 0.1
2018-Apr-15 19:58N 34°39' E 135°18'0 0.0
2018-Apr-15 19:28N 34°39' E 135°18'0 0.0
2018-Apr-15 18:58N 34°39' E 135°18'0 0.0
2018-Apr-15 18:28N 34°39' E 135°18'0 0.0
2018-Apr-15 17:58N 34°39' E 135°18'0 0.1
2018-Apr-15 17:28N 34°39' E 135°18'0 0.0
2018-Apr-15 16:58N 34°39' E 135°18'0 0.0
2018-Apr-15 16:28N 34°39' E 135°18'0 0.0
2018-Apr-15 15:58N 34°39' E 135°18'0 0.1
2018-Apr-15 15:28N 34°39' E 135°18'0 0.1
2018-Apr-15 14:58N 34°39' E 135°18'0 0.0
2018-Apr-15 14:28N 34°39' E 135°18'0 0.0
2018-Apr-15 13:58N 34°39' E 135°18'0 0.0
2018-Apr-15 13:28N 34°39' E 135°18'0 0.1
2018-Apr-15 12:58N 34°39' E 135°18'0 0.1
2018-Apr-15 12:28N 34°39' E 135°18'0 0.0
2018-Apr-15 11:58N 34°39' E 135°18'0 0.0
2018-Apr-15 11:25N 34°39' E 135°18'0 0.1
2018-Apr-15 10:58N 34°39' E 135°18'0 0.0
2018-Apr-15 10:28N 34°39' E 135°18'0 0.0
2018-Apr-15 09:58N 34°39' E 135°18'0 0.0
2018-Apr-15 09:28N 34°39' E 135°18'0 0.0
2018-Apr-15 08:58N 34°39' E 135°18'0 0.0
2018-Apr-15 08:28N 34°39' E 135°18'0 0.3
2018-Apr-15 07:58N 34°39' E 135°18'0 0.0
2018-Apr-15 07:28N 34°39' E 135°18'0 0.7
2018-Apr-15 07:00N 34°39' E 135°18'2 4.2
2018-Apr-15 06:31N 34°37' E 135°16'3 6.0
2018-Apr-15 06:00N 34°35' E 135°13'3 6.1
2018-Apr-15 05:30N 34°35' E 135°09'4 7.4
2018-Apr-15 05:01N 34°35' E 135°05'713.8
2018-Apr-15 04:30N 34°36' E 134°57'714.4
2018-Apr-15 04:00N 34°33' E 134°49'612.5
2018-Apr-15 03:30N 34°31' E 134°42'612.1
2018-Apr-15 03:01N 34°28' E 134°35'611.8
2018-Apr-15 02:31N 34°26' E 134°28'611.8
2018-Apr-15 02:00N 34°24' E 134°22'612.0
2018-Apr-15 01:30N 34°24' E 134°14'75 9.8
2018-Apr-14 17:54N 34°02' E 132°48'4 9.7
2018-Apr-14 17:30N 33°59' E 132°45'4 8.8
2018-Apr-14 17:00N 33°56' E 132°41'4 8.4
2018-Apr-14 16:30N 33°53' E 132°38'5 9.6
2018-Apr-14 16:00N 33°50' E 132°33'3 6.1
2018-Apr-14 15:30N 33°48' E 132°30'810.2
2018-Apr-14 14:45N 33°43' E 132°24'2311.2
2018-Apr-14 12:42N 33°27' E 132°04'511.2
2018-Apr-14 12:14N 33°23' E 131°60'210.6
2018-Apr-14 12:00N 33°21' E 131°59'611.2
2018-Apr-14 11:28N 33°15' E 132°01'  

Dump ship's entire track history